sensor_id;sensor_type;location;lat;lon;timestamp;temperature;humidity
4520;DHT22;2272;49.226;8.108;2024-01-06T00:01:29;2.80;99.90
4520;DHT22;2272;49.226;8.108;2024-01-06T00:03:56;2.80;99.90
4520;DHT22;2272;49.226;8.108;2024-01-06T00:06:23;2.70;99.90
4520;DHT22;2272;49.226;8.108;2024-01-06T00:08:51;2.70;99.90
4520;DHT22;2272;49.226;8.108;2024-01-06T00:11:19;2.80;99.90
4520;DHT22;2272;49.226;8.108;2024-01-06T00:13:46;2.70;99.90
4520;DHT22;2272;49.226;8.108;2024-01-06T00:16:13;2.80;99.90
4520;DHT22;2272;49.226;8.108;2024-01-06T00:18:39;2.80;99.90
4520;DHT22;2272;49.226;8.108;2024-01-06T00:21:06;2.80;99.90
4520;DHT22;2272;49.226;8.108;2024-01-06T00:23:33;2.80;99.90
4520;DHT22;2272;49.226;8.108;2024-01-06T00:26:01;2.80;99.90
4520;DHT22;2272;49.226;8.108;2024-01-06T00:28:27;2.90;99.90
4520;DHT22;2272;49.226;8.108;2024-01-06T00:30:54;2.90;99.90
4520;DHT22;2272;49.226;8.108;2024-01-06T00:33:21;2.90;99.90
4520;DHT22;2272;49.226;8.108;2024-01-06T00:35:48;3.00;99.90
4520;DHT22;2272;49.226;8.108;2024-01-06T00:38:15;3.10;99.90
4520;DHT22;2272;49.226;8.108;2024-01-06T00:40:42;3.10;99.90
4520;DHT22;2272;49.226;8.108;2024-01-06T00:43:10;3.10;99.90
4520;DHT22;2272;49.226;8.108;2024-01-06T00:45:37;3.20;99.90
4520;DHT22;2272;49.226;8.108;2024-01-06T00:48:05;3.20;99.90
4520;DHT22;2272;49.226;8.108;2024-01-06T00:50:31;3.20;99.90
4520;DHT22;2272;49.226;8.108;2024-01-06T00:52:58;3.30;99.90
4520;DHT22;2272;49.226;8.108;2024-01-06T00:55:26;3.30;99.90
4520;DHT22;2272;49.226;8.108;2024-01-06T00:57:52;3.20;99.90
4520;DHT22;2272;49.226;8.108;2024-01-06T01:00:21;3.30;99.90
4520;DHT22;2272;49.226;8.108;2024-01-06T01:02:48;3.20;99.90
4520;DHT22;2272;49.226;8.108;2024-01-06T01:05:14;3.20;99.90
4520;DHT22;2272;49.226;8.108;2024-01-06T01:07:41;3.20;99.90
4520;DHT22;2272;49.226;8.108;2024-01-06T01:10:08;3.20;99.90
4520;DHT22;2272;49.226;8.108;2024-01-06T01:12:35;3.20;99.90
4520;DHT22;2272;49.226;8.108;2024-01-06T01:15:02;3.10;99.90
4520;DHT22;2272;49.226;8.108;2024-01-06T01:17:31;3.10;99.90
4520;DHT22;2272;49.226;8.108;2024-01-06T01:19:57;3.10;99.90
4520;DHT22;2272;49.226;8.108;2024-01-06T01:22:24;3.20;99.90
4520;DHT22;2272;49.226;8.108;2024-01-06T01:24:51;3.20;99.90
4520;DHT22;2272;49.226;8.108;2024-01-06T01:27:18;3.20;99.90
4520;DHT22;2272;49.226;8.108;2024-01-06T01:29:44;3.20;99.90
4520;DHT22;2272;49.226;8.108;2024-01-06T01:32:11;3.20;99.90
4520;DHT22;2272;49.226;8.108;2024-01-06T01:34:39;3.10;99.90
4520;DHT22;2272;49.226;8.108;2024-01-06T01:37:06;3.10;99.90
4520;DHT22;2272;49.226;8.108;2024-01-06T01:39:32;3.10;99.90
4520;DHT22;2272;49.226;8.108;2024-01-06T01:41:59;3.10;99.90
4520;DHT22;2272;49.226;8.108;2024-01-06T01:44:26;3.10;99.90
4520;DHT22;2272;49.226;8.108;2024-01-06T01:46:53;3.10;99.90
4520;DHT22;2272;49.226;8.108;2024-01-06T01:49:19;3.10;99.90
4520;DHT22;2272;49.226;8.108;2024-01-06T01:51:49;3.00;99.90
4520;DHT22;2272;49.226;8.108;2024-01-06T01:54:16;3.00;99.90
4520;DHT22;2272;49.226;8.108;2024-01-06T01:56:43;3.00;99.90
4520;DHT22;2272;49.226;8.108;2024-01-06T01:59:11;2.90;99.90
4520;DHT22;2272;49.226;8.108;2024-01-06T02:01:38;2.90;99.90
4520;DHT22;2272;49.226;8.108;2024-01-06T02:04:05;2.90;99.90
4520;DHT22;2272;49.226;8.108;2024-01-06T02:06:32;2.80;99.90
4520;DHT22;2272;49.226;8.108;2024-01-06T02:09:00;2.80;99.90
4520;DHT22;2272;49.226;8.108;2024-01-06T02:11:27;2.70;99.90
4520;DHT22;2272;49.226;8.108;2024-01-06T02:13:53;2.70;99.90
4520;DHT22;2272;49.226;8.108;2024-01-06T02:16:20;2.60;99.90
4520;DHT22;2272;49.226;8.108;2024-01-06T02:18:46;2.50;99.90
4520;DHT22;2272;49.226;8.108;2024-01-06T02:21:13;2.40;99.90
4520;DHT22;2272;49.226;8.108;2024-01-06T02:23:42;2.30;99.90
4520;DHT22;2272;49.226;8.108;2024-01-06T02:26:10;2.30;99.90
4520;DHT22;2272;49.226;8.108;2024-01-06T02:28:38;2.20;99.90
4520;DHT22;2272;49.226;8.108;2024-01-06T02:31:05;2.20;99.90
4520;DHT22;2272;49.226;8.108;2024-01-06T02:33:32;2.20;99.90
4520;DHT22;2272;49.226;8.108;2024-01-06T02:35:58;2.10;99.90
4520;DHT22;2272;49.226;8.108;2024-01-06T02:38:25;2.10;99.90
4520;DHT22;2272;49.226;8.108;2024-01-06T02:40:53;2.20;99.90
4520;DHT22;2272;49.226;8.108;2024-01-06T02:43:20;2.20;99.90
4520;DHT22;2272;49.226;8.108;2024-01-06T02:45:47;2.30;99.90
4520;DHT22;2272;49.226;8.108;2024-01-06T02:48:14;2.40;99.90
4520;DHT22;2272;49.226;8.108;2024-01-06T02:50:41;2.50;99.90
4520;DHT22;2272;49.226;8.108;2024-01-06T02:53:07;2.70;99.90
4520;DHT22;2272;49.226;8.108;2024-01-06T02:55:35;2.80;99.90
4520;DHT22;2272;49.226;8.108;2024-01-06T02:58:03;2.90;99.90
4520;DHT22;2272;49.226;8.108;2024-01-06T03:00:30;3.00;99.90
4520;DHT22;2272;49.226;8.108;2024-01-06T03:02:56;3.10;99.90
4520;DHT22;2272;49.226;8.108;2024-01-06T03:05:23;3.10;99.90
4520;DHT22;2272;49.226;8.108;2024-01-06T03:07:50;3.20;99.90
4520;DHT22;2272;49.226;8.108;2024-01-06T03:10:17;3.20;99.90
4520;DHT22;2272;49.226;8.108;2024-01-06T03:12:43;3.30;99.90
4520;DHT22;2272;49.226;8.108;2024-01-06T03:15:11;3.30;99.90
4520;DHT22;2272;49.226;8.108;2024-01-06T03:17:38;3.40;99.90
4520;DHT22;2272;49.226;8.108;2024-01-06T03:20:06;3.50;99.90
4520;DHT22;2272;49.226;8.108;2024-01-06T03:22:32;3.50;99.90
4520;DHT22;2272;49.226;8.108;2024-01-06T03:24:59;3.60;99.90
4520;DHT22;2272;49.226;8.108;2024-01-06T03:27:26;3.60;99.90
4520;DHT22;2272;49.226;8.108;2024-01-06T03:29:53;3.70;99.90
4520;DHT22;2272;49.226;8.108;2024-01-06T03:32:21;3.70;99.90
4520;DHT22;2272;49.226;8.108;2024-01-06T03:34:49;3.70;99.90
4520;DHT22;2272;49.226;8.108;2024-01-06T03:37:16;3.80;99.90
4520;DHT22;2272;49.226;8.108;2024-01-06T03:39:43;3.80;99.90
4520;DHT22;2272;49.226;8.108;2024-01-06T03:42:10;3.90;99.90
4520;DHT22;2272;49.226;8.108;2024-01-06T03:44:37;3.90;99.90
4520;DHT22;2272;49.226;8.108;2024-01-06T03:47:04;3.90;99.90
4520;DHT22;2272;49.226;8.108;2024-01-06T03:49:32;3.80;99.90
4520;DHT22;2272;49.226;8.108;2024-01-06T03:51:59;3.90;99.90
4520;DHT22;2272;49.226;8.108;2024-01-06T03:54:26;3.90;99.90
4520;DHT22;2272;49.226;8.108;2024-01-06T03:56:53;3.90;99.90
4520;DHT22;2272;49.226;8.108;2024-01-06T03:59:19;3.90;99.90
4520;DHT22;2272;49.226;8.108;2024-01-06T04:01:46;3.90;99.90
4520;DHT22;2272;49.226;8.108;2024-01-06T04:04:13;3.90;99.90
4520;DHT22;2272;49.226;8.108;2024-01-06T04:06:41;3.90;99.90
4520;DHT22;2272;49.226;8.108;2024-01-06T04:09:07;3.90;99.90
4520;DHT22;2272;49.226;8.108;2024-01-06T04:11:35;3.90;99.90
4520;DHT22;2272;49.226;8.108;2024-01-06T04:14:01;3.80;99.90
4520;DHT22;2272;49.226;8.108;2024-01-06T04:16:29;3.80;99.90
4520;DHT22;2272;49.226;8.108;2024-01-06T04:18:55;3.70;99.90
4520;DHT22;2272;49.226;8.108;2024-01-06T04:21:22;3.70;99.90
4520;DHT22;2272;49.226;8.108;2024-01-06T04:23:50;3.60;99.90
4520;DHT22;2272;49.226;8.108;2024-01-06T04:26:17;3.60;99.90
4520;DHT22;2272;49.226;8.108;2024-01-06T04:28:43;3.60;99.90
4520;DHT22;2272;49.226;8.108;2024-01-06T04:31:10;3.50;99.90
4520;DHT22;2272;49.226;8.108;2024-01-06T04:33:37;3.50;99.90
4520;DHT22;2272;49.226;8.108;2024-01-06T04:36:06;3.50;99.90
4520;DHT22;2272;49.226;8.108;2024-01-06T04:38:33;3.60;99.90
4520;DHT22;2272;49.226;8.108;2024-01-06T04:41:01;3.60;99.90
4520;DHT22;2272;49.226;8.108;2024-01-06T04:43:28;3.60;99.90
4520;DHT22;2272;49.226;8.108;2024-01-06T04:45:54;3.60;99.90
4520;DHT22;2272;49.226;8.108;2024-01-06T04:48:22;3.60;99.90
4520;DHT22;2272;49.226;8.108;2024-01-06T04:50:49;3.60;99.90
4520;DHT22;2272;49.226;8.108;2024-01-06T04:53:16;3.60;99.90
4520;DHT22;2272;49.226;8.108;2024-01-06T04:55:43;3.50;99.90
4520;DHT22;2272;49.226;8.108;2024-01-06T04:58:11;3.50;99.90
4520;DHT22;2272;49.226;8.108;2024-01-06T05:00:37;3.50;99.90
4520;DHT22;2272;49.226;8.108;2024-01-06T05:03:04;3.50;99.90
4520;DHT22;2272;49.226;8.108;2024-01-06T05:05:31;3.50;99.90
4520;DHT22;2272;49.226;8.108;2024-01-06T05:07:57;3.50;99.90
4520;DHT22;2272;49.226;8.108;2024-01-06T05:10:24;3.50;99.90
4520;DHT22;2272;49.226;8.108;2024-01-06T05:12:51;3.60;99.90
4520;DHT22;2272;49.226;8.108;2024-01-06T05:15:19;3.70;99.90
4520;DHT22;2272;49.226;8.108;2024-01-06T05:17:46;3.70;99.90
4520;DHT22;2272;49.226;8.108;2024-01-06T05:20:13;3.70;99.90
4520;DHT22;2272;49.226;8.108;2024-01-06T05:22:39;3.70;99.90
4520;DHT22;2272;49.226;8.108;2024-01-06T05:25:07;3.70;99.90
4520;DHT22;2272;49.226;8.108;2024-01-06T05:27:34;3.70;99.90
4520;DHT22;2272;49.226;8.108;2024-01-06T05:30:01;3.70;99.90
4520;DHT22;2272;49.226;8.108;2024-01-06T05:32:29;3.70;99.90
4520;DHT22;2272;49.226;8.108;2024-01-06T05:34:56;3.70;99.90
4520;DHT22;2272;49.226;8.108;2024-01-06T05:37:22;3.70;99.90
4520;DHT22;2272;49.226;8.108;2024-01-06T05:39:49;3.70;99.90
4520;DHT22;2272;49.226;8.108;2024-01-06T05:42:16;3.70;99.90
4520;DHT22;2272;49.226;8.108;2024-01-06T05:44:42;3.70;99.90
4520;DHT22;2272;49.226;8.108;2024-01-06T05:47:09;3.70;99.90
4520;DHT22;2272;49.226;8.108;2024-01-06T05:49:41;3.70;99.90
4520;DHT22;2272;49.226;8.108;2024-01-06T05:52:08;3.60;99.90
4520;DHT22;2272;49.226;8.108;2024-01-06T05:54:35;3.60;99.90
4520;DHT22;2272;49.226;8.108;2024-01-06T05:57:02;3.60;99.90
4520;DHT22;2272;49.226;8.108;2024-01-06T05:59:28;3.60;99.90
4520;DHT22;2272;49.226;8.108;2024-01-06T06:01:55;3.60;99.90
4520;DHT22;2272;49.226;8.108;2024-01-06T06:04:22;3.60;99.90
4520;DHT22;2272;49.226;8.108;2024-01-06T06:06:50;3.70;99.90
4520;DHT22;2272;49.226;8.108;2024-01-06T06:09:16;3.70;99.90
4520;DHT22;2272;49.226;8.108;2024-01-06T06:11:43;3.70;99.90
4520;DHT22;2272;49.226;8.108;2024-01-06T06:14:10;3.80;99.90
4520;DHT22;2272;49.226;8.108;2024-01-06T06:16:38;3.80;99.90
4520;DHT22;2272;49.226;8.108;2024-01-06T06:19:05;3.80;99.90
4520;DHT22;2272;49.226;8.108;2024-01-06T06:21:33;3.90;99.90
4520;DHT22;2272;49.226;8.108;2024-01-06T06:24:01;3.90;99.90
4520;DHT22;2272;49.226;8.108;2024-01-06T06:26:28;3.90;99.90
4520;DHT22;2272;49.226;8.108;2024-01-06T06:28:55;3.90;99.90
4520;DHT22;2272;49.226;8.108;2024-01-06T06:31:22;3.90;99.90
4520;DHT22;2272;49.226;8.108;2024-01-06T06:33:48;4.00;99.90
4520;DHT22;2272;49.226;8.108;2024-01-06T06:36:15;4.10;99.90
4520;DHT22;2272;49.226;8.108;2024-01-06T06:38:42;4.10;99.90
4520;DHT22;2272;49.226;8.108;2024-01-06T06:41:10;4.10;99.90
4520;DHT22;2272;49.226;8.108;2024-01-06T06:43:37;4.20;99.90
4520;DHT22;2272;49.226;8.108;2024-01-06T06:46:03;4.10;99.90
4520;DHT22;2272;49.226;8.108;2024-01-06T06:48:30;4.20;99.90
4520;DHT22;2272;49.226;8.108;2024-01-06T06:50:57;4.20;99.90
4520;DHT22;2272;49.226;8.108;2024-01-06T06:53:24;4.20;99.90
4520;DHT22;2272;49.226;8.108;2024-01-06T06:55:50;4.20;99.90
4520;DHT22;2272;49.226;8.108;2024-01-06T06:58:18;4.30;99.90
4520;DHT22;2272;49.226;8.108;2024-01-06T07:00:45;4.30;99.90
4520;DHT22;2272;49.226;8.108;2024-01-06T07:03:12;4.30;99.90
4520;DHT22;2272;49.226;8.108;2024-01-06T07:05:39;4.30;99.90
4520;DHT22;2272;49.226;8.108;2024-01-06T07:08:06;4.40;99.90
4520;DHT22;2272;49.226;8.108;2024-01-06T07:10:33;4.40;99.90
4520;DHT22;2272;49.226;8.108;2024-01-06T07:12:59;4.40;99.90
4520;DHT22;2272;49.226;8.108;2024-01-06T07:15:27;4.50;99.90
4520;DHT22;2272;49.226;8.108;2024-01-06T07:17:54;4.50;99.90
4520;DHT22;2272;49.226;8.108;2024-01-06T07:20:21;4.50;99.90
4520;DHT22;2272;49.226;8.108;2024-01-06T07:22:48;4.40;99.90
4520;DHT22;2272;49.226;8.108;2024-01-06T07:25:14;4.50;99.90
4520;DHT22;2272;49.226;8.108;2024-01-06T07:27:41;4.40;99.90
4520;DHT22;2272;49.226;8.108;2024-01-06T07:30:08;4.40;99.90
4520;DHT22;2272;49.226;8.108;2024-01-06T07:32:37;4.40;99.90
4520;DHT22;2272;49.226;8.108;2024-01-06T07:35:04;4.40;99.90
4520;DHT22;2272;49.226;8.108;2024-01-06T07:37:31;4.50;99.90
4520;DHT22;2272;49.226;8.108;2024-01-06T07:39:58;4.50;99.90
4520;DHT22;2272;49.226;8.108;2024-01-06T07:42:25;4.40;99.90
4520;DHT22;2272;49.226;8.108;2024-01-06T07:44:51;4.40;99.90
4520;DHT22;2272;49.226;8.108;2024-01-06T07:47:19;4.40;99.90
4520;DHT22;2272;49.226;8.108;2024-01-06T07:49:47;4.50;99.90
4520;DHT22;2272;49.226;8.108;2024-01-06T07:52:14;4.50;99.90
4520;DHT22;2272;49.226;8.108;2024-01-06T07:54:41;4.50;99.90
4520;DHT22;2272;49.226;8.108;2024-01-06T07:57:08;4.50;99.90
4520;DHT22;2272;49.226;8.108;2024-01-06T07:59:36;4.50;99.90
4520;DHT22;2272;49.226;8.108;2024-01-06T08:02:03;4.50;99.90
4520;DHT22;2272;49.226;8.108;2024-01-06T08:04:30;4.50;99.90
4520;DHT22;2272;49.226;8.108;2024-01-06T08:06:58;4.50;99.90
4520;DHT22;2272;49.226;8.108;2024-01-06T08:09:25;4.60;99.90
4520;DHT22;2272;49.226;8.108;2024-01-06T08:11:52;4.60;99.90
4520;DHT22;2272;49.226;8.108;2024-01-06T08:14:18;4.60;99.90
4520;DHT22;2272;49.226;8.108;2024-01-06T08:16:45;4.60;99.90
4520;DHT22;2272;49.226;8.108;2024-01-06T08:19:12;4.60;99.90
4520;DHT22;2272;49.226;8.108;2024-01-06T08:21:39;4.60;99.90
4520;DHT22;2272;49.226;8.108;2024-01-06T08:24:08;4.60;99.90
4520;DHT22;2272;49.226;8.108;2024-01-06T08:26:35;4.60;99.90
4520;DHT22;2272;49.226;8.108;2024-01-06T08:29:02;4.60;99.90
4520;DHT22;2272;49.226;8.108;2024-01-06T08:31:29;4.70;99.90
4520;DHT22;2272;49.226;8.108;2024-01-06T08:33:56;4.70;99.90
4520;DHT22;2272;49.226;8.108;2024-01-06T08:36:23;4.70;99.90
4520;DHT22;2272;49.226;8.108;2024-01-06T08:38:50;4.80;99.90
4520;DHT22;2272;49.226;8.108;2024-01-06T08:41:19;4.70;99.90
4520;DHT22;2272;49.226;8.108;2024-01-06T08:43:46;4.80;99.90
4520;DHT22;2272;49.226;8.108;2024-01-06T08:46:13;4.80;99.90
4520;DHT22;2272;49.226;8.108;2024-01-06T08:48:39;4.80;99.90
4520;DHT22;2272;49.226;8.108;2024-01-06T08:51:06;4.80;99.90
4520;DHT22;2272;49.226;8.108;2024-01-06T08:53:33;4.80;99.90
4520;DHT22;2272;49.226;8.108;2024-01-06T08:56:00;4.80;99.90
4520;DHT22;2272;49.226;8.108;2024-01-06T08:58:28;4.80;99.90
4520;DHT22;2272;49.226;8.108;2024-01-06T09:00:55;4.80;99.90
4520;DHT22;2272;49.226;8.108;2024-01-06T09:03:21;4.80;99.90
4520;DHT22;2272;49.226;8.108;2024-01-06T09:05:51;4.80;99.90
4520;DHT22;2272;49.226;8.108;2024-01-06T09:08:18;4.90;99.90
4520;DHT22;2272;49.226;8.108;2024-01-06T09:10:45;4.80;99.90
4520;DHT22;2272;49.226;8.108;2024-01-06T09:13:12;4.90;99.90
4520;DHT22;2272;49.226;8.108;2024-01-06T09:15:40;4.90;99.90
4520;DHT22;2272;49.226;8.108;2024-01-06T09:18:07;4.90;99.90
4520;DHT22;2272;49.226;8.108;2024-01-06T09:20:35;5.00;99.90
4520;DHT22;2272;49.226;8.108;2024-01-06T09:23:02;5.00;99.90
4520;DHT22;2272;49.226;8.108;2024-01-06T09:25:29;5.00;99.90
4520;DHT22;2272;49.226;8.108;2024-01-06T09:27:56;5.00;99.90
4520;DHT22;2272;49.226;8.108;2024-01-06T09:30:24;5.10;99.90
4520;DHT22;2272;49.226;8.108;2024-01-06T09:32:52;5.10;99.90
4520;DHT22;2272;49.226;8.108;2024-01-06T09:35:20;5.20;99.90
4520;DHT22;2272;49.226;8.108;2024-01-06T09:37:47;5.30;99.90
4520;DHT22;2272;49.226;8.108;2024-01-06T09:40:19;5.30;99.90
4520;DHT22;2272;49.226;8.108;2024-01-06T09:42:47;5.30;99.90
4520;DHT22;2272;49.226;8.108;2024-01-06T09:45:14;5.30;99.90
4520;DHT22;2272;49.226;8.108;2024-01-06T09:47:41;5.30;99.90
4520;DHT22;2272;49.226;8.108;2024-01-06T09:50:09;5.30;99.90
4520;DHT22;2272;49.226;8.108;2024-01-06T09:52:39;5.30;99.90
4520;DHT22;2272;49.226;8.108;2024-01-06T09:55:10;5.20;99.90
4520;DHT22;2272;49.226;8.108;2024-01-06T09:57:37;5.20;99.90
4520;DHT22;2272;49.226;8.108;2024-01-06T10:00:05;5.10;99.90
4520;DHT22;2272;49.226;8.108;2024-01-06T10:02:33;5.10;99.90
4520;DHT22;2272;49.226;8.108;2024-01-06T10:05:00;5.10;99.90
4520;DHT22;2272;49.226;8.108;2024-01-06T10:07:29;5.10;99.90
4520;DHT22;2272;49.226;8.108;2024-01-06T10:09:55;5.10;99.90
4520;DHT22;2272;49.226;8.108;2024-01-06T10:12:23;5.20;99.90
4520;DHT22;2272;49.226;8.108;2024-01-06T10:14:50;5.30;99.90
4520;DHT22;2272;49.226;8.108;2024-01-06T10:17:17;5.30;99.90
4520;DHT22;2272;49.226;8.108;2024-01-06T10:19:45;5.40;99.90
4520;DHT22;2272;49.226;8.108;2024-01-06T10:22:13;5.40;99.90
4520;DHT22;2272;49.226;8.108;2024-01-06T10:24:41;5.50;99.90
4520;DHT22;2272;49.226;8.108;2024-01-06T10:27:08;5.60;99.90
4520;DHT22;2272;49.226;8.108;2024-01-06T10:29:35;5.60;99.90
4520;DHT22;2272;49.226;8.108;2024-01-06T10:32:03;5.70;99.90
4520;DHT22;2272;49.226;8.108;2024-01-06T10:34:31;5.90;99.90
4520;DHT22;2272;49.226;8.108;2024-01-06T10:36:58;6.00;99.90
4520;DHT22;2272;49.226;8.108;2024-01-06T10:39:26;6.10;99.90
4520;DHT22;2272;49.226;8.108;2024-01-06T10:41:57;6.20;99.90
4520;DHT22;2272;49.226;8.108;2024-01-06T10:44:24;6.30;99.90
4520;DHT22;2272;49.226;8.108;2024-01-06T10:46:51;6.30;99.90
4520;DHT22;2272;49.226;8.108;2024-01-06T10:49:20;6.40;99.90
4520;DHT22;2272;49.226;8.108;2024-01-06T10:51:48;6.40;99.90
4520;DHT22;2272;49.226;8.108;2024-01-06T10:54:17;6.50;99.90
4520;DHT22;2272;49.226;8.108;2024-01-06T10:56:45;6.60;99.90
4520;DHT22;2272;49.226;8.108;2024-01-06T10:59:14;6.70;99.90
4520;DHT22;2272;49.226;8.108;2024-01-06T11:01:41;6.70;99.90
4520;DHT22;2272;49.226;8.108;2024-01-06T11:04:08;6.80;99.90
4520;DHT22;2272;49.226;8.108;2024-01-06T11:06:36;6.80;99.90
4520;DHT22;2272;49.226;8.108;2024-01-06T11:09:09;6.80;99.90
4520;DHT22;2272;49.226;8.108;2024-01-06T11:11:37;7.00;99.90
4520;DHT22;2272;49.226;8.108;2024-01-06T11:14:23;7.10;99.90
4520;DHT22;2272;49.226;8.108;2024-01-06T11:16:55;7.20;99.90
4520;DHT22;2272;49.226;8.108;2024-01-06T11:19:46;7.20;99.90
4520;DHT22;2272;49.226;8.108;2024-01-06T11:22:19;7.30;99.90
4520;DHT22;2272;49.226;8.108;2024-01-06T11:24:47;7.30;99.90
4520;DHT22;2272;49.226;8.108;2024-01-06T11:27:17;7.40;99.90
4520;DHT22;2272;49.226;8.108;2024-01-06T11:29:46;7.50;99.90
4520;DHT22;2272;49.226;8.108;2024-01-06T11:32:20;7.50;99.90
4520;DHT22;2272;49.226;8.108;2024-01-06T11:34:50;7.60;99.90
4520;DHT22;2272;49.226;8.108;2024-01-06T11:37:23;7.60;99.90
4520;DHT22;2272;49.226;8.108;2024-01-06T11:39:51;7.50;99.90
4520;DHT22;2272;49.226;8.108;2024-01-06T11:42:18;7.70;99.90
4520;DHT22;2272;49.226;8.108;2024-01-06T11:44:50;7.80;99.90
4520;DHT22;2272;49.226;8.108;2024-01-06T11:47:17;7.80;99.90
4520;DHT22;2272;49.226;8.108;2024-01-06T11:49:54;7.80;99.90
4520;DHT22;2272;49.226;8.108;2024-01-06T11:52:22;7.80;99.90
4520;DHT22;2272;49.226;8.108;2024-01-06T11:54:51;7.80;99.90
4520;DHT22;2272;49.226;8.108;2024-01-06T11:57:18;7.70;99.90
4520;DHT22;2272;49.226;8.108;2024-01-06T11:59:47;7.70;99.90
4520;DHT22;2272;49.226;8.108;2024-01-06T12:02:14;7.60;99.90
4520;DHT22;2272;49.226;8.108;2024-01-06T12:04:42;7.60;99.90
4520;DHT22;2272;49.226;8.108;2024-01-06T12:07:10;7.50;99.90
4520;DHT22;2272;49.226;8.108;2024-01-06T12:09:39;7.40;99.90
4520;DHT22;2272;49.226;8.108;2024-01-06T12:12:07;7.30;99.90
4520;DHT22;2272;49.226;8.108;2024-01-06T12:14:35;7.30;99.90
4520;DHT22;2272;49.226;8.108;2024-01-06T12:17:04;7.20;99.90
4520;DHT22;2272;49.226;8.108;2024-01-06T12:19:32;7.20;99.90
4520;DHT22;2272;49.226;8.108;2024-01-06T12:21:58;7.20;99.90
4520;DHT22;2272;49.226;8.108;2024-01-06T12:24:27;7.30;99.90
4520;DHT22;2272;49.226;8.108;2024-01-06T12:26:55;7.40;99.90
4520;DHT22;2272;49.226;8.108;2024-01-06T12:29:22;7.50;99.90
4520;DHT22;2272;49.226;8.108;2024-01-06T12:31:49;7.40;99.90
4520;DHT22;2272;49.226;8.108;2024-01-06T12:34:17;7.40;99.90
4520;DHT22;2272;49.226;8.108;2024-01-06T12:36:44;7.40;99.90
4520;DHT22;2272;49.226;8.108;2024-01-06T12:39:13;7.40;99.90
4520;DHT22;2272;49.226;8.108;2024-01-06T12:41:40;7.50;99.90
4520;DHT22;2272;49.226;8.108;2024-01-06T12:44:08;7.60;99.90
4520;DHT22;2272;49.226;8.108;2024-01-06T12:46:34;7.70;99.90
4520;DHT22;2272;49.226;8.108;2024-01-06T12:49:01;7.60;99.90
4520;DHT22;2272;49.226;8.108;2024-01-06T12:51:30;7.60;99.90
4520;DHT22;2272;49.226;8.108;2024-01-06T12:53:56;7.40;99.90
4520;DHT22;2272;49.226;8.108;2024-01-06T12:56:23;7.40;99.90
4520;DHT22;2272;49.226;8.108;2024-01-06T12:58:50;7.30;99.90
4520;DHT22;2272;49.226;8.108;2024-01-06T13:01:17;7.20;99.90
4520;DHT22;2272;49.226;8.108;2024-01-06T13:03:44;7.10;99.90
4520;DHT22;2272;49.226;8.108;2024-01-06T13:06:10;7.00;99.90
4520;DHT22;2272;49.226;8.108;2024-01-06T13:08:38;7.00;99.90
4520;DHT22;2272;49.226;8.108;2024-01-06T13:11:05;6.90;99.90
4520;DHT22;2272;49.226;8.108;2024-01-06T13:13:33;6.90;99.90
4520;DHT22;2272;49.226;8.108;2024-01-06T13:15:59;6.80;99.90
4520;DHT22;2272;49.226;8.108;2024-01-06T13:18:27;6.70;99.90
4520;DHT22;2272;49.226;8.108;2024-01-06T13:20:54;6.70;99.90
4520;DHT22;2272;49.226;8.108;2024-01-06T13:23:21;6.70;99.90
4520;DHT22;2272;49.226;8.108;2024-01-06T13:25:49;6.70;99.90
4520;DHT22;2272;49.226;8.108;2024-01-06T13:28:15;6.60;99.90
4520;DHT22;2272;49.226;8.108;2024-01-06T13:30:42;6.60;99.90
4520;DHT22;2272;49.226;8.108;2024-01-06T13:33:09;6.50;99.90
4520;DHT22;2272;49.226;8.108;2024-01-06T13:35:36;6.50;99.90
4520;DHT22;2272;49.226;8.108;2024-01-06T13:38:03;6.50;99.90
4520;DHT22;2272;49.226;8.108;2024-01-06T13:40:30;6.50;99.90
4520;DHT22;2272;49.226;8.108;2024-01-06T13:42:59;6.50;99.90
4520;DHT22;2272;49.226;8.108;2024-01-06T13:45:25;6.60;99.90
4520;DHT22;2272;49.226;8.108;2024-01-06T13:47:52;6.60;99.90
4520;DHT22;2272;49.226;8.108;2024-01-06T13:50:19;6.60;99.90
4520;DHT22;2272;49.226;8.108;2024-01-06T13:52:46;6.60;99.90
4520;DHT22;2272;49.226;8.108;2024-01-06T13:55:13;6.60;99.90
4520;DHT22;2272;49.226;8.108;2024-01-06T13:57:40;6.60;99.90
4520;DHT22;2272;49.226;8.108;2024-01-06T14:00:11;6.60;99.90
4520;DHT22;2272;49.226;8.108;2024-01-06T14:02:43;6.60;99.90
4520;DHT22;2272;49.226;8.108;2024-01-06T14:05:10;6.60;99.90
4520;DHT22;2272;49.226;8.108;2024-01-06T14:07:37;6.60;99.90
4520;DHT22;2272;49.226;8.108;2024-01-06T14:10:06;6.60;99.90
4520;DHT22;2272;49.226;8.108;2024-01-06T14:12:33;6.60;99.90
4520;DHT22;2272;49.226;8.108;2024-01-06T14:15:00;6.50;99.90
4520;DHT22;2272;49.226;8.108;2024-01-06T14:17:28;6.50;99.90
4520;DHT22;2272;49.226;8.108;2024-01-06T14:19:55;6.50;99.90
4520;DHT22;2272;49.226;8.108;2024-01-06T14:22:22;6.50;99.90
4520;DHT22;2272;49.226;8.108;2024-01-06T14:24:48;6.50;99.90
4520;DHT22;2272;49.226;8.108;2024-01-06T14:27:15;6.50;99.90
4520;DHT22;2272;49.226;8.108;2024-01-06T14:29:42;6.50;99.90
4520;DHT22;2272;49.226;8.108;2024-01-06T14:32:09;6.50;99.90
4520;DHT22;2272;49.226;8.108;2024-01-06T14:34:37;6.60;99.90
4520;DHT22;2272;49.226;8.108;2024-01-06T14:37:05;6.60;99.90
4520;DHT22;2272;49.226;8.108;2024-01-06T14:39:31;6.70;99.90
4520;DHT22;2272;49.226;8.108;2024-01-06T14:41:58;6.80;99.90
4520;DHT22;2272;49.226;8.108;2024-01-06T14:44:25;6.80;99.90
4520;DHT22;2272;49.226;8.108;2024-01-06T14:46:54;6.80;99.90
4520;DHT22;2272;49.226;8.108;2024-01-06T14:49:20;6.80;99.90
4520;DHT22;2272;49.226;8.108;2024-01-06T14:51:48;6.80;99.90
4520;DHT22;2272;49.226;8.108;2024-01-06T14:54:15;6.80;99.90
4520;DHT22;2272;49.226;8.108;2024-01-06T14:56:42;6.80;99.90
4520;DHT22;2272;49.226;8.108;2024-01-06T14:59:09;6.80;99.90
4520;DHT22;2272;49.226;8.108;2024-01-06T15:01:35;6.80;99.90
4520;DHT22;2272;49.226;8.108;2024-01-06T15:04:02;6.80;99.90
4520;DHT22;2272;49.226;8.108;2024-01-06T15:06:29;6.70;99.90
4520;DHT22;2272;49.226;8.108;2024-01-06T15:08:57;6.70;99.90
4520;DHT22;2272;49.226;8.108;2024-01-06T15:11:24;6.60;99.90
4520;DHT22;2272;49.226;8.108;2024-01-06T15:13:50;6.60;99.90
4520;DHT22;2272;49.226;8.108;2024-01-06T15:16:17;6.60;99.90
4520;DHT22;2272;49.226;8.108;2024-01-06T15:18:44;6.60;99.90
4520;DHT22;2272;49.226;8.108;2024-01-06T15:21:10;6.50;99.90
4520;DHT22;2272;49.226;8.108;2024-01-06T15:23:38;6.50;99.90
4520;DHT22;2272;49.226;8.108;2024-01-06T15:26:05;6.50;99.90
4520;DHT22;2272;49.226;8.108;2024-01-06T15:28:32;6.50;99.90
4520;DHT22;2272;49.226;8.108;2024-01-06T15:30:59;6.40;99.90
4520;DHT22;2272;49.226;8.108;2024-01-06T15:33:26;6.40;99.90
4520;DHT22;2272;49.226;8.108;2024-01-06T15:35:53;6.30;99.90
4520;DHT22;2272;49.226;8.108;2024-01-06T15:38:19;6.20;99.90
4520;DHT22;2272;49.226;8.108;2024-01-06T15:40:46;6.10;99.90
4520;DHT22;2272;49.226;8.108;2024-01-06T15:43:14;6.10;99.90
4520;DHT22;2272;49.226;8.108;2024-01-06T15:45:41;6.10;99.90
4520;DHT22;2272;49.226;8.108;2024-01-06T15:48:07;6.00;99.90
4520;DHT22;2272;49.226;8.108;2024-01-06T15:50:34;6.00;99.90
4520;DHT22;2272;49.226;8.108;2024-01-06T15:53:01;6.00;99.90
4520;DHT22;2272;49.226;8.108;2024-01-06T15:55:28;6.00;99.90
4520;DHT22;2272;49.226;8.108;2024-01-06T15:57:54;6.00;99.90
4520;DHT22;2272;49.226;8.108;2024-01-06T16:00:22;5.90;99.90
4520;DHT22;2272;49.226;8.108;2024-01-06T16:02:49;5.90;99.90
4520;DHT22;2272;49.226;8.108;2024-01-06T16:05:17;5.90;99.90
4520;DHT22;2272;49.226;8.108;2024-01-06T16:07:43;5.90;99.90
4520;DHT22;2272;49.226;8.108;2024-01-06T16:10:10;5.80;99.90
4520;DHT22;2272;49.226;8.108;2024-01-06T16:12:39;5.80;99.90
4520;DHT22;2272;49.226;8.108;2024-01-06T16:15:07;5.80;99.90
4520;DHT22;2272;49.226;8.108;2024-01-06T16:17:35;5.80;99.90